Time;durP1;ratioP1;P1;durP2;ratioP2;P2;SDS_P1;SDS_P2;PMS_P1;PMS_P2;Temp;Humidity;BMP_temperature;BMP_pressure;BME280_temperature;BME280_humidity;BME280_pressure;Samples;Min_cycle;Max_cycle;Signal;HPM_P1;HPM_P2
2024/01/24 00:01:31;;;;;;;4.47;1.73;;;;;;;;;;6302027;28;20115;-85
2024/01/24 00:04:31;;;;;;;4.97;1.80;;;;;;;;;;6317121;28;20029;-85
2024/01/24 00:07:32;;;;;;;4.67;2.00;;;;;;;;;;6322696;28;20047;-85
2024/01/24 00:10:32;;;;;;;4.43;1.73;;;;;;;;;;6323491;28;20056;-85
2024/01/24 00:13:32;;;;;;;2.53;1.43;;;;;;;;;;6322107;28;20456;-85
2024/01/24 00:16:32;;;;;;;2.87;1.23;;;;;;;;;;6320089;28;20384;-84
2024/01/24 00:19:33;;;;;;;1.43;1.13;;;;;;;;;;6316831;28;20026;-84
2024/01/24 00:22:34;;;;;;;4.32;1.17;;;;;;;;;;6303118;28;20488;-85
2024/01/24 00:25:34;;;;;;;4.73;1.20;;;;;;;;;;6316043;28;20027;-84
2024/01/24 00:28:34;;;;;;;6.07;1.60;;;;;;;;;;6319055;28;20486;-85
2024/01/24 00:31:34;;;;;;;3.50;1.87;;;;;;;;;;6303709;28;20027;-85
2024/01/24 00:34:35;;;;;;;3.07;1.83;;;;;;;;;;6299878;28;20035;-85
2024/01/24 00:37:35;;;;;;;3.67;1.67;;;;;;;;;;6322277;28;20054;-85
2024/01/24 00:40:36;;;;;;;3.33;1.73;;;;;;;;;;6315885;28;20378;-84
2024/01/24 00:43:37;;;;;;;3.28;1.40;;;;;;;;;;6324476;28;20020;-85
2024/01/24 00:46:37;;;;;;;1.43;1.17;;;;;;;;;;6322443;28;20031;-86
2024/01/24 00:49:37;;;;;;;2.60;1.37;;;;;;;;;;6317187;28;20027;-85
2024/01/24 00:52:38;;;;;;;1.77;1.10;;;;;;;;;;6317674;28;20449;-85
2024/01/24 00:55:38;;;;;;;1.47;1.10;;;;;;;;;;6321049;28;20031;-85
2024/01/24 00:58:38;;;;;;;1.83;1.23;;;;;;;;;;6323704;28;20077;-85
2024/01/24 01:01:39;;;;;;;1.80;1.20;;;;;;;;;;6319619;28;20024;-85
2024/01/24 01:04:39;;;;;;;3.03;1.23;;;;;;;;;;6322380;28;20476;-85
2024/01/24 01:07:39;;;;;;;2.30;1.03;;;;;;;;;;6349904;27;20563;-85
2024/01/24 01:10:40;;;;;;;2.73;1.20;;;;;;;;;;6369884;27;20064;-86
2024/01/24 01:13:40;;;;;;;2.57;1.20;;;;;;;;;;6352997;27;20501;-86
2024/01/24 01:16:40;;;;;;;1.67;0.93;;;;;;;;;;6357250;27;20027;-85
2024/01/24 01:19:41;;;;;;;3.67;1.13;;;;;;;;;;6361756;27;20019;-85
2024/01/24 01:22:41;;;;;;;3.07;1.37;;;;;;;;;;6368066;27;20026;-85
2024/01/24 01:25:41;;;;;;;1.27;0.93;;;;;;;;;;6368812;27;20037;-85
2024/01/24 01:28:41;;;;;;;1.20;0.90;;;;;;;;;;6361494;28;20103;-84
2024/01/24 01:31:42;;;;;;;3.73;1.37;;;;;;;;;;6372331;27;20019;-84
2024/01/24 01:34:42;;;;;;;3.43;1.20;;;;;;;;;;6373387;28;20019;-85
2024/01/24 01:37:42;;;;;;;1.00;0.90;;;;;;;;;;6375157;28;20085;-85
2024/01/24 01:40:42;;;;;;;2.50;1.30;;;;;;;;;;6345955;27;20016;-84
2024/01/24 01:43:43;;;;;;;1.60;1.10;;;;;;;;;;6377419;27;20523;-84
2024/01/24 01:46:45;;;;;;;1.70;1.13;;;;;;;;;;6377545;27;20352;-85
2024/01/24 01:49:45;;;;;;;2.17;1.05;;;;;;;;;;6376310;27;20023;-85
2024/01/24 01:52:46;;;;;;;1.93;1.00;;;;;;;;;;6361083;27;20074;-85
2024/01/24 01:55:46;;;;;;;1.90;0.93;;;;;;;;;;6355779;27;20114;-85
2024/01/24 01:58:46;;;;;;;1.83;0.90;;;;;;;;;;6378738;27;20019;-84
2024/01/24 02:01:47;;;;;;;1.67;1.07;;;;;;;;;;6360568;27;20456;-85
2024/01/24 02:04:47;;;;;;;1.40;1.00;;;;;;;;;;6356997;27;20023;-85
2024/01/24 02:07:48;;;;;;;2.17;1.00;;;;;;;;;;6375717;27;20031;-85
2024/01/24 02:10:48;;;;;;;2.37;1.00;;;;;;;;;;6375197;27;20494;-85
2024/01/24 02:13:48;;;;;;;1.53;1.00;;;;;;;;;;6361835;27;20031;-84
2024/01/24 02:16:49;;;;;;;1.83;0.90;;;;;;;;;;6380736;27;20054;-85
2024/01/24 02:19:49;;;;;;;1.83;1.00;;;;;;;;;;6376213;27;20023;-85
2024/01/24 02:22:49;;;;;;;1.33;0.90;;;;;;;;;;6377696;27;20374;-85
2024/01/24 02:25:50;;;;;;;1.07;0.90;;;;;;;;;;6354793;27;20175;-85
2024/01/24 02:28:50;;;;;;;1.60;0.90;;;;;;;;;;6372950;27;20032;-86
2024/01/24 02:31:51;;;;;;;1.57;1.07;;;;;;;;;;6376666;27;20016;-85
2024/01/24 02:34:51;;;;;;;1.47;1.00;;;;;;;;;;6375993;27;20468;-86
2024/01/24 02:37:51;;;;;;;1.50;1.10;;;;;;;;;;6356840;27;20054;-86
2024/01/24 02:40:51;;;;;;;2.23;0.90;;;;;;;;;;6376151;27;20023;-85
2024/01/24 02:43:52;;;;;;;2.73;1.00;;;;;;;;;;6355550;27;20023;-85
2024/01/24 02:46:52;;;;;;;2.03;0.90;;;;;;;;;;6370565;27;20053;-85
2024/01/24 02:49:52;;;;;;;1.73;0.90;;;;;;;;;;6372210;27;20484;-86
2024/01/24 02:52:52;;;;;;;2.17;0.97;;;;;;;;;;6373780;27;20023;-85
2024/01/24 02:55:53;;;;;;;1.33;0.80;;;;;;;;;;6372868;27;20023;-85
2024/01/24 02:58:53;;;;;;;1.20;0.77;;;;;;;;;;6375153;27;20019;-84
2024/01/24 03:01:53;;;;;;;1.07;0.70;;;;;;;;;;6353350;27;20370;-84
2024/01/24 03:04:54;;;;;;;1.33;0.83;;;;;;;;;;6356558;27;20019;-84
2024/01/24 03:07:54;;;;;;;1.87;0.90;;;;;;;;;;6347659;27;20040;-84
2024/01/24 03:10:54;;;;;;;1.37;0.77;;;;;;;;;;6345971;28;20077;-84
2024/01/24 03:13:54;;;;;;;2.40;1.10;;;;;;;;;;6341326;28;20016;-84
2024/01/24 03:16:56;;;;;;;1.93;0.90;;;;;;;;;;6343051;28;20035;-83
2024/01/24 03:19:56;;;;;;;1.63;0.70;;;;;;;;;;6339297;28;20023;-84
2024/01/24 03:22:57;;;;;;;1.20;0.70;;;;;;;;;;6343743;28;20024;-84
2024/01/24 03:25:57;;;;;;;1.37;0.87;;;;;;;;;;6348887;28;20031;-85
2024/01/24 03:28:58;;;;;;;1.03;0.63;;;;;;;;;;6344753;28;20023;-84
2024/01/24 03:31:58;;;;;;;1.40;0.70;;;;;;;;;;6331314;28;20365;-85
2024/01/24 03:35:01;;;;;;;1.50;0.93;;;;;;;;;;6346250;28;20479;-85
2024/01/24 03:38:02;;;;;;;2.25;1.00;;;;;;;;;;6348643;28;20036;-85
2024/01/24 03:41:02;;;;;;;1.50;0.85;;;;;;;;;;6342343;28;20027;-85
2024/01/24 03:44:03;;;;;;;1.37;0.97;;;;;;;;;;6343276;28;20447;-85
2024/01/24 03:47:04;;;;;;;2.33;0.93;;;;;;;;;;6350964;28;20019;-84
2024/01/24 03:50:04;;;;;;;1.20;0.70;;;;;;;;;;6346747;28;20032;-84
2024/01/24 03:53:05;;;;;;;1.37;0.93;;;;;;;;;;6341302;28;20098;-82
2024/01/24 03:56:06;;;;;;;1.13;0.67;;;;;;;;;;6333848;28;20032;-84
2024/01/24 03:59:06;;;;;;;1.73;0.93;;;;;;;;;;6342570;28;20027;-85
2024/01/24 04:02:06;;;;;;;4.27;0.90;;;;;;;;;;6341220;28;20032;-85
2024/01/24 04:05:07;;;;;;;1.73;1.10;;;;;;;;;;6330809;28;20020;-85
2024/01/24 04:08:08;;;;;;;3.42;0.95;;;;;;;;;;6343177;28;20551;-84
2024/01/24 04:11:08;;;;;;;2.53;1.03;;;;;;;;;;6325871;28;20030;-84
2024/01/24 04:14:09;;;;;;;1.63;1.00;;;;;;;;;;6346717;28;20168;-85
2024/01/24 04:17:09;;;;;;;1.20;0.70;;;;;;;;;;6328686;28;20169;-84
2024/01/24 04:20:10;;;;;;;1.10;0.87;;;;;;;;;;6333540;28;20024;-84
2024/01/24 04:23:10;;;;;;;2.13;0.90;;;;;;;;;;6343006;28;20429;-85
2024/01/24 04:26:10;;;;;;;1.23;0.80;;;;;;;;;;6334021;28;20024;-85
2024/01/24 04:29:11;;;;;;;0.97;0.70;;;;;;;;;;6338256;28;20110;-85
2024/01/24 04:32:11;;;;;;;1.97;0.97;;;;;;;;;;6340518;28;20027;-85
2024/01/24 04:35:11;;;;;;;1.20;0.70;;;;;;;;;;6338402;28;20463;-85
2024/01/24 04:38:12;;;;;;;1.80;0.80;;;;;;;;;;6312609;28;20035;-85
2024/01/24 04:41:13;;;;;;;1.60;1.00;;;;;;;;;;6330390;28;20027;-85
2024/01/24 04:44:16;;;;;;;1.37;0.80;;;;;;;;;;6322027;28;20472;-86
2024/01/24 04:47:16;;;;;;;1.38;0.80;;;;;;;;;;6342162;28;20016;-85
2024/01/24 04:50:16;;;;;;;1.10;0.70;;;;;;;;;;6343141;28;20020;-85
2024/01/24 04:53:17;;;;;;;1.90;0.90;;;;;;;;;;6328175;28;20027;-85
2024/01/24 04:56:17;;;;;;;1.10;0.70;;;;;;;;;;6330524;28;20016;-84
2024/01/24 04:59:17;;;;;;;0.90;0.70;;;;;;;;;;6318434;28;20054;-84
2024/01/24 05:02:18;;;;;;;1.70;0.73;;;;;;;;;;6335575;28;20045;-85
2024/01/24 05:05:18;;;;;;;3.07;0.70;;;;;;;;;;6329822;28;20457;-85
2024/01/24 05:08:18;;;;;;;1.17;0.67;;;;;;;;;;6341247;28;20111;-84
2024/01/24 05:11:19;;;;;;;1.47;0.80;;;;;;;;;;6338987;28;20055;-85
2024/01/24 05:14:19;;;;;;;1.50;0.80;;;;;;;;;;6332437;28;20059;-84
2024/01/24 05:17:19;;;;;;;1.27;0.70;;;;;;;;;;6345158;28;20395;-84
2024/01/24 05:20:19;;;;;;;1.47;0.70;;;;;;;;;;6325890;28;20392;-84
2024/01/24 05:23:20;;;;;;;1.33;0.67;;;;;;;;;;6339651;28;20450;-85
2024/01/24 05:26:20;;;;;;;0.73;0.60;;;;;;;;;;6337283;28;20456;-84
2024/01/24 05:29:20;;;;;;;1.17;0.70;;;;;;;;;;6331392;28;20020;-84
2024/01/24 05:32:21;;;;;;;1.40;1.00;;;;;;;;;;6324281;28;20022;-84
2024/01/24 05:35:21;;;;;;;2.27;0.97;;;;;;;;;;6336933;28;20107;-84
2024/01/24 05:38:21;;;;;;;1.33;0.90;;;;;;;;;;6334426;28;20468;-84
2024/01/24 05:41:22;;;;;;;1.13;0.80;;;;;;;;;;6343189;28;20545;-84
2024/01/24 05:44:22;;;;;;;1.97;0.90;;;;;;;;;;6341782;28;20024;-84
2024/01/24 05:47:22;;;;;;;2.60;0.97;;;;;;;;;;6343468;28;20384;-84
2024/01/24 05:50:22;;;;;;;2.17;1.00;;;;;;;;;;6339601;28;20027;-83
2024/01/24 05:53:23;;;;;;;2.50;1.10;;;;;;;;;;6336431;28;20038;-84
2024/01/24 05:56:23;;;;;;;1.33;1.00;;;;;;;;;;6339261;28;20027;-84
2024/01/24 05:59:23;;;;;;;1.63;1.07;;;;;;;;;;6337295;28;20077;-83
2024/01/24 06:02:24;;;;;;;1.43;0.80;;;;;;;;;;6341005;28;20036;-84
2024/01/24 06:05:24;;;;;;;0.90;0.70;;;;;;;;;;6337590;28;20016;-83
2024/01/24 06:08:24;;;;;;;1.57;0.57;;;;;;;;;;6328614;28;20393;-84
2024/01/24 06:11:24;;;;;;;1.23;0.70;;;;;;;;;;6325724;28;20067;-84
2024/01/24 06:14:25;;;;;;;2.50;0.80;;;;;;;;;;6339662;28;20042;-84
2024/01/24 06:17:25;;;;;;;1.47;0.80;;;;;;;;;;6337668;28;20034;-84
2024/01/24 06:20:25;;;;;;;1.13;0.70;;;;;;;;;;6338220;28;20015;-84
2024/01/24 06:23:25;;;;;;;1.60;0.80;;;;;;;;;;6337622;28;20492;-84
2024/01/24 06:26:26;;;;;;;2.17;0.97;;;;;;;;;;6338731;28;20129;-84
2024/01/24 06:29:26;;;;;;;1.70;1.03;;;;;;;;;;6343795;28;20114;-83
2024/01/24 06:32:26;;;;;;;1.47;1.10;;;;;;;;;;6345229;28;20024;-84
2024/01/24 06:35:26;;;;;;;4.20;1.50;;;;;;;;;;6329418;28;20119;-84
2024/01/24 06:38:27;;;;;;;3.07;1.40;;;;;;;;;;6342835;28;20031;-83
2024/01/24 06:41:28;;;;;;;2.10;1.07;;;;;;;;;;6345091;28;20104;-84
2024/01/24 06:44:28;;;;;;;1.30;1.10;;;;;;;;;;6345907;28;20024;-84
2024/01/24 06:47:28;;;;;;;1.60;1.03;;;;;;;;;;6344144;28;20076;-83
2024/01/24 06:50:29;;;;;;;4.67;1.50;;;;;;;;;;6331351;28;20487;-84
2024/01/24 06:53:29;;;;;;;2.00;1.23;;;;;;;;;;6345410;28;20129;-84
2024/01/24 06:56:30;;;;;;;4.33;1.30;;;;;;;;;;6342778;28;20036;-84
2024/01/24 06:59:30;;;;;;;1.63;1.37;;;;;;;;;;6343288;28;20027;-83
2024/01/24 07:02:31;;;;;;;2.42;1.60;;;;;;;;;;6342087;28;20015;-84
2024/01/24 07:08:31;;;;;;;2.45;1.63;;;;;;;;;;6341401;27;20084;-83
2024/01/24 07:11:32;;;;;;;2.63;1.40;;;;;;;;;;6341519;28;20401;-83
2024/01/24 07:14:33;;;;;;;1.70;1.40;;;;;;;;;;6342726;28;20031;-83
2024/01/24 07:17:34;;;;;;;1.77;1.02;;;;;;;;;;6340126;28;20488;-83
2024/01/24 07:20:34;;;;;;;1.80;1.20;;;;;;;;;;6323123;28;20027;-83
2024/01/24 07:23:34;;;;;;;1.87;1.10;;;;;;;;;;6344189;28;20034;-83
2024/01/24 07:26:35;;;;;;;1.77;1.10;;;;;;;;;;6339864;28;20467;-83
2024/01/24 07:29:35;;;;;;;1.90;1.10;;;;;;;;;;6342353;28;20030;-83
2024/01/24 07:32:39;;;;;;;1.33;0.93;;;;;;;;;;6330413;28;20042;-83
2024/01/24 07:35:40;;;;;;;3.70;1.30;;;;;;;;;;6333921;28;20027;-82
2024/01/24 07:38:40;;;;;;;2.30;1.20;;;;;;;;;;6339411;28;20498;-83
2024/01/24 07:41:40;;;;;;;2.37;1.30;;;;;;;;;;6328954;28;20039;-83
2024/01/24 07:44:41;;;;;;;2.30;1.10;;;;;;;;;;6342132;28;20031;-83
2024/01/24 07:47:41;;;;;;;2.13;1.00;;;;;;;;;;6327670;28;20055;-82
2024/01/24 07:50:42;;;;;;;1.43;1.17;;;;;;;;;;6341779;28;20012;-83
2024/01/24 07:53:43;;;;;;;1.90;1.10;;;;;;;;;;6333076;28;20036;-83
2024/01/24 07:56:44;;;;;;;1.50;1.20;;;;;;;;;;6340042;28;20035;-83
2024/01/24 07:59:44;;;;;;;2.97;1.20;;;;;;;;;;6340949;28;20027;-82
2024/01/24 08:02:45;;;;;;;2.97;1.40;;;;;;;;;;6341050;28;20580;-83
2024/01/24 08:05:45;;;;;;;2.73;1.13;;;;;;;;;;6342300;28;20015;-83
2024/01/24 08:08:45;;;;;;;1.70;1.10;;;;;;;;;;6339617;28;20110;-82
2024/01/24 08:11:46;;;;;;;2.00;0.87;;;;;;;;;;6342355;28;20111;-82
2024/01/24 08:14:46;;;;;;;1.67;1.00;;;;;;;;;;6343129;27;20055;-83
2024/01/24 08:17:47;;;;;;;1.10;0.83;;;;;;;;;;6346723;28;20034;-79
2024/01/24 08:20:47;;;;;;;1.35;0.68;;;;;;;;;;6327190;28;20465;-81
2024/01/24 08:23:48;;;;;;;0.80;0.67;;;;;;;;;;6342140;28;20030;-81
2024/01/24 08:26:48;;;;;;;0.70;0.50;;;;;;;;;;6319958;28;20488;-81
2024/01/24 08:29:49;;;;;;;0.60;0.43;;;;;;;;;;6339427;28;20102;-81
2024/01/24 08:32:50;;;;;;;1.17;0.37;;;;;;;;;;6338550;28;20024;-81
2024/01/24 08:35:50;;;;;;;0.68;0.50;;;;;;;;;;6334853;28;20039;-84
2024/01/24 08:38:50;;;;;;;3.57;1.50;;;;;;;;;;6322473;28;20040;-82
2024/01/24 08:41:50;;;;;;;2.43;1.00;;;;;;;;;;6337974;28;20019;-84
2024/01/24 08:44:51;;;;;;;0.70;0.70;;;;;;;;;;6317822;28;20444;-85
2024/01/24 08:47:51;;;;;;;0.63;0.40;;;;;;;;;;6344012;28;20024;-84
2024/01/24 08:50:52;;;;;;;0.50;0.30;;;;;;;;;;6346064;28;20020;-84
2024/01/24 08:53:52;;;;;;;0.40;0.30;;;;;;;;;;6341647;28;20020;-82
2024/01/24 08:56:52;;;;;;;0.40;0.30;;;;;;;;;;6323649;28;20032;-83
2024/01/24 08:59:53;;;;;;;0.47;0.30;;;;;;;;;;6329976;28;20024;-83
2024/01/24 09:02:53;;;;;;;0.17;0.17;;;;;;;;;;6334394;27;20028;-83
2024/01/24 09:05:53;;;;;;;0.30;0.30;;;;;;;;;;6335792;28;20047;-83
2024/01/24 09:08:54;;;;;;;0.23;0.23;;;;;;;;;;6339323;27;20103;-83
2024/01/24 09:11:54;;;;;;;0.30;0.30;;;;;;;;;;6337853;28;20236;-83
2024/01/24 09:14:54;;;;;;;0.20;0.20;;;;;;;;;;6338520;27;20024;-83
2024/01/24 09:17:55;;;;;;;0.87;0.30;;;;;;;;;;6333682;28;20032;-83
2024/01/24 09:20:55;;;;;;;0.53;0.40;;;;;;;;;;6336741;28;20028;-83
2024/01/24 09:23:55;;;;;;;0.47;0.27;;;;;;;;;;6345445;28;20039;-85
2024/01/24 09:26:56;;;;;;;0.40;0.30;;;;;;;;;;6342309;28;20023;-83
2024/01/24 09:29:56;;;;;;;0.30;0.20;;;;;;;;;;6322553;28;20356;-81
2024/01/24 09:32:56;;;;;;;0.27;0.27;;;;;;;;;;6316010;28;20039;-84
2024/01/24 09:35:56;;;;;;;0.60;0.20;;;;;;;;;;6332718;28;20035;-83
2024/01/24 09:38:57;;;;;;;0.30;0.20;;;;;;;;;;6338675;28;20020;-85
2024/01/24 09:41:57;;;;;;;0.20;0.17;;;;;;;;;;6317201;28;20024;-85
2024/01/24 09:44:58;;;;;;;0.20;0.20;;;;;;;;;;6344442;28;20030;-84
2024/01/24 09:47:58;;;;;;;0.30;0.30;;;;;;;;;;6329451;28;20020;-84
2024/01/24 09:50:59;;;;;;;0.40;0.20;;;;;;;;;;6343608;28;20096;-84
2024/01/24 09:54:08;;;;;;;0.20;0.20;;;;;;;;;;6337227;28;20102;-84
2024/01/24 09:57:09;;;;;;;0.20;0.20;;;;;;;;;;6333854;28;20495;-86
2024/01/24 10:00:10;;;;;;;0.55;0.28;;;;;;;;;;6324151;28;20024;-86
2024/01/24 10:03:10;;;;;;;0.30;0.30;;;;;;;;;;6340206;28;20032;-85
2024/01/24 10:06:12;;;;;;;0.77;0.30;;;;;;;;;;6329945;28;20071;-80
2024/01/24 10:09:12;;;;;;;0.50;0.30;;;;;;;;;;6336243;28;20531;-82
2024/01/24 10:12:13;;;;;;;0.20;0.20;;;;;;;;;;6324204;28;20037;-83
2024/01/24 10:15:13;;;;;;;0.30;0.23;;;;;;;;;;6341194;28;20054;-82
2024/01/24 10:18:13;;;;;;;0.50;0.30;;;;;;;;;;6335930;28;20472;-82
2024/01/24 10:21:14;;;;;;;0.77;0.30;;;;;;;;;;6349726;28;20098;-82
2024/01/24 10:24:14;;;;;;;0.47;0.20;;;;;;;;;;6349347;28;20020;-82
2024/01/24 10:27:15;;;;;;;0.80;0.40;;;;;;;;;;6337687;28;20717;-83
2024/01/24 10:30:15;;;;;;;0.93;0.20;;;;;;;;;;6349890;28;20027;-82
2024/01/24 10:33:16;;;;;;;0.63;0.30;;;;;;;;;;6342158;28;20031;-82
2024/01/24 10:36:16;;;;;;;0.30;0.23;;;;;;;;;;6331362;28;20055;-82
2024/01/24 10:39:17;;;;;;;0.20;0.20;;;;;;;;;;6350185;28;20058;-84
2024/01/24 10:42:18;;;;;;;0.10;0.10;;;;;;;;;;6334367;28;20020;-84
2024/01/24 10:45:20;;;;;;;0.22;0.20;;;;;;;;;;6348306;28;20035;-83
2024/01/24 10:48:20;;;;;;;0.20;0.20;;;;;;;;;;6333196;28;20028;-83
2024/01/24 10:51:20;;;;;;;0.20;0.20;;;;;;;;;;6338668;28;20043;-83
2024/01/24 10:54:21;;;;;;;0.20;0.20;;;;;;;;;;6340991;28;20061;-83
2024/01/24 10:57:22;;;;;;;0.30;0.27;;;;;;;;;;6331937;28;20028;-83
2024/01/24 11:00:22;;;;;;;;;;;;;;;;;;6341822;28;20036;-82
2024/01/24 11:03:23;;;;;;;0.43;0.10;;;;;;;;;;6315684;28;19919;-82
2024/01/24 11:06:25;;;;;;;0.30;0.20;;;;;;;;;;6344588;28;20040;-83
2024/01/24 11:09:38;;;;;;;0.50;0.30;;;;;;;;;;6307355;28;20031;-83
2024/01/24 11:12:38;;;;;;;0.38;0.20;;;;;;;;;;6329627;28;20028;-83
2024/01/24 11:15:40;;;;;;;0.83;0.30;;;;;;;;;;6338670;28;20036;-83
2024/01/24 11:18:41;;;;;;;0.55;0.20;;;;;;;;;;6328721;28;21348;-83
2024/01/24 11:21:41;;;;;;;0.22;0.22;;;;;;;;;;6347388;28;20457;-83
2024/01/24 11:24:44;;;;;;;0.40;0.30;;;;;;;;;;6341279;28;20495;-84
2024/01/24 11:27:46;;;;;;;0.43;0.30;;;;;;;;;;6334224;28;20456;-83
2024/01/24 11:30:46;;;;;;;1.10;0.25;;;;;;;;;;6349820;28;20023;-83
2024/01/24 11:34:06;;;;;;;0.23;0.23;;;;;;;;;;6342421;28;20070;-83
2024/01/24 11:37:06;;;;;;;0.60;0.20;;;;;;;;;;6334855;28;20024;-78
2024/01/24 11:40:08;;;;;;;0.30;0.20;;;;;;;;;;6339941;28;20023;-78
2024/01/24 11:43:21;;;;;;;0.70;0.28;;;;;;;;;;6326387;28;20365;-78
2024/01/24 11:46:22;;;;;;;0.50;0.30;;;;;;;;;;6346727;28;20019;-77
2024/01/24 11:49:25;;;;;;;0.40;0.30;;;;;;;;;;6339767;28;20098;-79
2024/01/24 11:52:25;;;;;;;0.20;0.20;;;;;;;;;;6339877;28;20022;-78
2024/01/24 11:55:28;;;;;;;0.27;0.27;;;;;;;;;;6348920;28;20388;-77
2024/01/24 11:58:29;;;;;;;1.20;0.30;;;;;;;;;;6345909;28;20015;-79
2024/01/24 12:01:29;;;;;;;0.28;0.25;;;;;;;;;;6333962;28;20031;-80
2024/01/24 12:04:29;;;;;;;0.30;0.30;;;;;;;;;;6341554;28;20031;-78
2024/01/24 12:07:29;;;;;;;0.50;0.37;;;;;;;;;;6339679;28;20044;-78
2024/01/24 12:10:30;;;;;;;0.50;0.37;;;;;;;;;;6320250;28;20047;-78
2024/01/24 12:13:33;;;;;;;0.40;0.20;;;;;;;;;;6336223;28;20028;-80
2024/01/24 12:16:33;;;;;;;0.65;0.22;;;;;;;;;;6314154;28;20023;-77
2024/01/24 12:19:35;;;;;;;0.65;0.20;;;;;;;;;;6330165;28;20046;-78
2024/01/24 12:22:36;;;;;;;0.40;0.30;;;;;;;;;;6349188;28;20024;-76
2024/01/24 12:25:36;;;;;;;0.37;0.30;;;;;;;;;;6341588;28;20118;-78
2024/01/24 12:28:36;;;;;;;0.70;0.30;;;;;;;;;;6345375;28;20020;-77
2024/01/24 12:31:40;;;;;;;0.30;0.20;;;;;;;;;;6342136;28;20473;-78
2024/01/24 12:34:45;;;;;;;0.40;0.40;;;;;;;;;;6313225;28;20031;-77
2024/01/24 12:37:45;;;;;;;0.20;0.20;;;;;;;;;;6341502;28;20023;-78
2024/01/24 12:40:52;;;;;;;0.37;0.23;;;;;;;;;;6346840;28;20539;-79
2024/01/24 12:43:52;;;;;;;0.28;0.28;;;;;;;;;;6339470;28;20050;-77
2024/01/24 12:46:56;;;;;;;0.33;0.30;;;;;;;;;;6345058;28;20110;-83
2024/01/24 12:49:57;;;;;;;0.20;0.20;;;;;;;;;;6340133;28;20380;-83
2024/01/24 12:52:57;;;;;;;0.93;0.37;;;;;;;;;;6330003;28;20031;-83
2024/01/24 12:55:57;;;;;;;0.50;0.37;;;;;;;;;;6346757;28;20031;-83
2024/01/24 12:58:57;;;;;;;0.30;0.27;;;;;;;;;;6313165;28;20032;-83
2024/01/24 13:01:59;;;;;;;0.50;0.30;;;;;;;;;;6339354;28;20028;-83
2024/01/24 13:04:59;;;;;;;0.70;0.28;;;;;;;;;;6331451;28;20030;-83
2024/01/24 13:07:59;;;;;;;1.17;0.30;;;;;;;;;;6336327;28;20540;-83
2024/01/24 13:11:00;;;;;;;0.53;0.40;;;;;;;;;;6337086;28;20499;-83
2024/01/24 13:14:00;;;;;;;0.50;0.30;;;;;;;;;;6345350;28;20498;-83
2024/01/24 13:17:03;;;;;;;0.20;0.20;;;;;;;;;;6315969;28;20105;-83
2024/01/24 13:20:09;;;;;;;0.20;0.20;;;;;;;;;;6330902;28;20027;-82
2024/01/24 13:23:09;;;;;;;3.03;1.33;;;;;;;;;;6338060;28;20529;-82
2024/01/24 13:26:09;;;;;;;1.70;0.87;;;;;;;;;;6337716;28;20106;-82
2024/01/24 13:29:09;;;;;;;0.97;0.60;;;;;;;;;;6325707;28;20047;-82
2024/01/24 13:32:10;;;;;;;1.07;0.53;;;;;;;;;;6317539;28;20469;-82
2024/01/24 13:35:10;;;;;;;0.57;0.47;;;;;;;;;;6307858;28;20530;-82
2024/01/24 13:38:11;;;;;;;0.40;0.40;;;;;;;;;;6325329;28;20468;-82
2024/01/24 13:41:11;;;;;;;0.60;0.30;;;;;;;;;;6334188;28;20106;-82
2024/01/24 13:44:12;;;;;;;2.27;0.70;;;;;;;;;;6324738;28;20540;-82
2024/01/24 13:47:12;;;;;;;0.75;0.30;;;;;;;;;;6351091;28;20088;-82
2024/01/24 13:50:12;;;;;;;0.50;0.30;;;;;;;;;;6322949;28;20391;-82
2024/01/24 13:53:13;;;;;;;1.23;0.47;;;;;;;;;;6342684;28;20392;-82
2024/01/24 13:56:13;;;;;;;0.67;0.37;;;;;;;;;;6334023;28;20447;-77
2024/01/24 13:59:13;;;;;;;0.50;0.40;;;;;;;;;;6350794;28;20149;-77
2024/01/24 14:02:13;;;;;;;0.50;0.30;;;;;;;;;;6337847;28;20027;-77
2024/01/24 14:05:14;;;;;;;0.43;0.30;;;;;;;;;;6334021;28;20118;-77
2024/01/24 14:08:14;;;;;;;0.33;0.30;;;;;;;;;;6346799;28;20488;-77
2024/01/24 14:11:14;;;;;;;0.40;0.30;;;;;;;;;;6345758;28;20020;-77
2024/01/24 14:14:15;;;;;;;0.52;0.40;;;;;;;;;;6334772;28;20024;-77
2024/01/24 14:17:15;;;;;;;0.67;0.40;;;;;;;;;;6335424;28;20032;-77
2024/01/24 14:20:16;;;;;;;0.43;0.40;;;;;;;;;;6351380;28;20106;-77
2024/01/24 14:23:16;;;;;;;0.57;0.30;;;;;;;;;;6346625;28;20024;-77
2024/01/24 14:26:17;;;;;;;0.77;0.37;;;;;;;;;;6336003;28;20420;-77
2024/01/24 14:29:17;;;;;;;0.20;0.20;;;;;;;;;;6345542;28;20469;-77
2024/01/24 14:32:18;;;;;;;0.55;0.35;;;;;;;;;;6347983;28;20019;-77
2024/01/24 14:35:18;;;;;;;0.52;0.45;;;;;;;;;;6349728;28;20059;-77
2024/01/24 14:38:19;;;;;;;0.27;0.20;;;;;;;;;;6342058;28;20020;-77
2024/01/24 14:41:19;;;;;;;0.77;0.30;;;;;;;;;;6349596;28;20106;-78
2024/01/24 14:44:19;;;;;;;0.30;0.30;;;;;;;;;;6343515;28;20471;-76
2024/01/24 14:47:19;;;;;;;0.40;0.40;;;;;;;;;;6326689;28;20034;-78
2024/01/24 14:50:20;;;;;;;0.57;0.30;;;;;;;;;;6325245;28;20020;-77
2024/01/24 14:53:20;;;;;;;0.50;0.40;;;;;;;;;;6341614;28;20026;-77
2024/01/24 14:56:20;;;;;;;0.47;0.40;;;;;;;;;;6343821;28;20023;-77
2024/01/24 14:59:20;;;;;;;0.40;0.40;;;;;;;;;;6313331;28;20043;-77
2024/01/24 15:02:21;;;;;;;0.83;0.40;;;;;;;;;;6338582;28;20026;-77
2024/01/24 15:05:21;;;;;;;0.70;0.60;;;;;;;;;;6333396;28;20032;-77
2024/01/24 15:08:21;;;;;;;2.00;1.33;;;;;;;;;;6339796;28;20055;-83
2024/01/24 15:11:22;;;;;;;2.77;1.10;;;;;;;;;;6339290;28;20024;-82
2024/01/24 15:14:23;;;;;;;2.47;0.83;;;;;;;;;;6337085;28;20036;-82
2024/01/24 15:17:23;;;;;;;2.05;0.70;;;;;;;;;;6335456;28;20495;-82
2024/01/24 15:20:24;;;;;;;1.27;0.43;;;;;;;;;;6317670;28;20028;-81
2024/01/24 15:23:24;;;;;;;1.17;0.60;;;;;;;;;;6332793;28;20016;-81
2024/01/24 15:26:24;;;;;;;1.73;0.53;;;;;;;;;;6343486;28;20364;-82
2024/01/24 15:29:25;;;;;;;0.90;0.73;;;;;;;;;;6326236;28;20024;-82
2024/01/24 15:32:26;;;;;;;1.83;1.13;;;;;;;;;;6322487;28;20043;-82
2024/01/24 15:35:26;;;;;;;4.50;2.83;;;;;;;;;;6340468;28;20486;-82
2024/01/24 15:38:26;;;;;;;2.60;1.57;;;;;;;;;;6346927;28;20073;-82
2024/01/24 15:41:27;;;;;;;2.03;1.00;;;;;;;;;;6331579;28;20043;-82
2024/01/24 15:44:27;;;;;;;0.60;0.60;;;;;;;;;;6337305;28;20027;-82
2024/01/24 15:47:28;;;;;;;0.80;0.40;;;;;;;;;;6347863;28;20106;-82
2024/01/24 15:50:28;;;;;;;0.30;0.23;;;;;;;;;;6349487;28;20051;-82
2024/01/24 15:53:28;;;;;;;0.30;0.30;;;;;;;;;;6341144;28;20058;-82
2024/01/24 15:56:28;;;;;;;0.20;0.20;;;;;;;;;;6341071;28;20464;-82
2024/01/24 15:59:29;;;;;;;0.20;0.20;;;;;;;;;;6331568;28;20012;-82
2024/01/24 16:02:29;;;;;;;0.20;0.20;;;;;;;;;;6336546;28;20024;-82
2024/01/24 16:05:34;;;;;;;0.13;0.13;;;;;;;;;;6335877;28;20024;-82
2024/01/24 16:08:35;;;;;;;0.20;0.20;;;;;;;;;;6336264;28;20079;-82
2024/01/24 16:11:36;;;;;;;0.20;0.17;;;;;;;;;;6340352;28;20016;-82
2024/01/24 16:14:36;;;;;;;0.20;0.20;;;;;;;;;;6343769;28;20019;-83
2024/01/24 16:17:36;;;;;;;0.20;0.20;;;;;;;;;;6347018;28;20036;-81
2024/01/24 16:20:36;;;;;;;0.30;0.30;;;;;;;;;;6339668;28;20026;-82
2024/01/24 16:23:37;;;;;;;0.23;0.20;;;;;;;;;;6337848;28;20098;-82
2024/01/24 16:26:37;;;;;;;1.10;0.27;;;;;;;;;;6340957;28;20016;-82
2024/01/24 16:29:37;;;;;;;0.20;0.20;;;;;;;;;;6348074;28;20119;-82
2024/01/24 16:32:40;;;;;;;0.40;0.20;;;;;;;;;;6348380;28;20016;-82
2024/01/24 16:35:40;;;;;;;0.45;0.20;;;;;;;;;;6326787;28;20036;-82
2024/01/24 16:38:40;;;;;;;0.13;0.13;;;;;;;;;;6340966;28;20031;-82
2024/01/24 16:41:40;;;;;;;0.17;0.17;;;;;;;;;;6349462;28;20032;-82
2024/01/24 16:44:41;;;;;;;0.10;0.10;;;;;;;;;;6332459;28;20534;-82
2024/01/24 16:47:41;;;;;;;0.20;0.20;;;;;;;;;;6340736;28;20023;-82
2024/01/24 16:50:41;;;;;;;0.37;0.20;;;;;;;;;;6330784;28;20023;-82
2024/01/24 16:53:41;;;;;;;0.13;0.10;;;;;;;;;;6324424;28;20032;-82
2024/01/24 16:56:42;;;;;;;0.47;0.10;;;;;;;;;;6337359;28;20043;-81
2024/01/24 16:59:42;;;;;;;0.20;0.20;;;;;;;;;;6336030;28;20055;-83
2024/01/24 17:02:42;;;;;;;0.10;0.10;;;;;;;;;;6347054;28;20019;-83
2024/01/24 17:05:43;;;;;;;0.23;0.20;;;;;;;;;;6336387;28;20024;-83
2024/01/24 17:08:43;;;;;;;0.30;0.30;;;;;;;;;;6348553;28;20588;-84
2024/01/24 17:11:43;;;;;;;1.30;0.73;;;;;;;;;;6345916;28;20019;-84
2024/01/24 17:14:45;;;;;;;1.90;1.03;;;;;;;;;;6337955;28;20019;-84
2024/01/24 17:17:45;;;;;;;1.00;0.60;;;;;;;;;;6319681;28;20123;-82
2024/01/24 17:20:46;;;;;;;0.40;0.40;;;;;;;;;;6332898;28;20020;-83
2024/01/24 17:23:46;;;;;;;0.30;0.20;;;;;;;;;;6314075;28;20035;-82
2024/01/24 17:26:46;;;;;;;0.20;0.20;;;;;;;;;;6342916;28;20059;-80
2024/01/24 17:29:47;;;;;;;0.33;0.30;;;;;;;;;;6333733;28;20016;-83
2024/01/24 17:32:47;;;;;;;0.20;0.20;;;;;;;;;;6318283;28;20012;-85
2024/01/24 17:35:47;;;;;;;0.40;0.37;;;;;;;;;;6313638;28;20020;-80
2024/01/24 17:38:47;;;;;;;0.77;0.30;;;;;;;;;;6342482;28;20024;-83
2024/01/24 17:41:48;;;;;;;0.23;0.20;;;;;;;;;;6335099;28;20027;-82
2024/01/24 17:44:48;;;;;;;0.40;0.30;;;;;;;;;;6323545;28;20019;-83
2024/01/24 17:47:48;;;;;;;0.37;0.30;;;;;;;;;;6338722;28;20017;-83
2024/01/24 17:50:49;;;;;;;0.30;0.20;;;;;;;;;;6335449;28;20276;-82
2024/01/24 17:53:49;;;;;;;0.30;0.30;;;;;;;;;;6341991;28;20019;-82
2024/01/24 17:56:49;;;;;;;0.37;0.37;;;;;;;;;;6332629;28;20070;-82
2024/01/24 17:59:49;;;;;;;0.70;0.30;;;;;;;;;;6334692;28;20019;-82
2024/01/24 18:02:50;;;;;;;0.70;0.40;;;;;;;;;;6341463;28;20020;-82
2024/01/24 18:05:50;;;;;;;0.70;0.40;;;;;;;;;;6335627;28;20024;-82